Terminal Aerodrome Forecast
Issued by NWS

Home | Current Version | Previous Version | Text Only | Print | Product List | Glossary On
Versions: 1 2 3 4 5 6 7 8 9 10 11 12 13 14 15
435
FTPA31 PHFO 241735
TAFHTO
TAF
PHTO 241735Z 2418/2518 24006KT P6SM FEW030 SCT050
     FM242000 03012KT P6SM FEW030 SCT050
     FM250400 27005KT P6SM VCSH SCT030 BKN050=

USA.gov is the U.S. government's official web portal to all federal, state and local government web resources and services.